createdAt,value
2022-10-13T00:01:17.227Z,15.23
2022-10-13T00:03:47.262Z,12.63
2022-10-13T00:06:18.866Z,12.07
2022-10-13T00:08:47.398Z,12.05
2022-10-13T00:11:17.271Z,10.82
2022-10-13T00:13:51.534Z,14.82
2022-10-13T00:16:21.648Z,16.65
2022-10-13T00:18:50.549Z,14.27
2022-10-13T00:21:23.078Z,15.38
2022-10-13T00:23:51.403Z,12.90
2022-10-13T00:26:20.752Z,10.45
2022-10-13T00:28:52.806Z,20.15
2022-10-13T00:31:23.075Z,18.08
2022-10-13T00:33:50.959Z,14.73
2022-10-13T00:36:18.877Z,16.45
2022-10-13T00:38:47.062Z,11.30
2022-10-13T00:41:15.018Z,13.48
2022-10-13T00:43:57.148Z,12.05
2022-10-13T00:46:26.400Z,13.57
2022-10-13T00:48:55.098Z,21.50
2022-10-13T00:51:27.225Z,12.57
2022-10-13T00:53:58.403Z,11.45
2022-10-13T00:56:28.996Z,13.80
2022-10-13T00:59:00.077Z,14.95
2022-10-13T01:01:30.018Z,16.52
2022-10-13T01:03:59.009Z,13.55
2022-10-13T01:06:27.082Z,8.77
2022-10-13T01:08:54.966Z,13.80
2022-10-13T01:11:47.333Z,13.25
2022-10-13T01:14:22.902Z,8.90
2022-10-13T01:17:00.238Z,12.38
2022-10-13T01:19:52.224Z,9.45
2022-10-13T01:22:36.135Z,11.35
2022-10-13T01:25:15.788Z,10.25
2022-10-13T01:28:08.214Z,10.90
2022-10-13T01:30:45.415Z,9.13
2022-10-13T01:33:26.827Z,11.32
2022-10-13T01:36:11.819Z,13.82
2022-10-13T01:38:44.711Z,11.48
2022-10-13T01:41:22.243Z,12.32
2022-10-13T01:43:54.886Z,11.05
2022-10-13T01:48:59.301Z,8.38
2022-10-13T01:51:29.034Z,13.45
2022-10-13T01:53:56.808Z,11.55
2022-10-13T01:56:24.549Z,13.68
2022-10-13T01:58:54.336Z,14.02
2022-10-13T02:01:33.809Z,10.75
2022-10-13T02:04:13.817Z,13.68
2022-10-13T02:06:46.877Z,12.32
2022-10-13T02:09:22.076Z,12.48
2022-10-13T02:11:55.450Z,13.18
2022-10-13T02:14:27.430Z,14.57
2022-10-13T02:17:00.037Z,15.68
2022-10-13T02:19:32.327Z,19.20
2022-10-13T02:22:00.404Z,13.73
2022-10-13T02:24:28.312Z,16.00
2022-10-13T02:26:57.310Z,15.68
2022-10-13T02:29:25.702Z,12.73
2022-10-13T02:31:56.850Z,16.23
2022-10-13T02:34:26.010Z,15.38
2022-10-13T02:36:53.870Z,14.55
2022-10-13T02:39:21.796Z,16.48
2022-10-13T02:41:49.490Z,10.93
2022-10-13T02:44:17.390Z,12.02
2022-10-13T02:46:45.145Z,12.15
2022-10-13T02:49:15.952Z,11.35
2022-10-13T02:51:46.263Z,10.45
2022-10-13T02:54:13.944Z,19.60
2022-10-13T02:56:41.645Z,11.60
2022-10-13T02:59:09.311Z,10.05
2022-10-13T03:01:41.285Z,13.05
2022-10-13T03:04:09.955Z,15.13
2022-10-13T03:06:37.955Z,13.90
2022-10-13T03:09:09.927Z,12.23
2022-10-13T03:11:39.700Z,13.80
2022-10-13T03:14:07.392Z,16.77
2022-10-13T03:16:36.084Z,15.68
2022-10-13T03:19:05.729Z,14.25
2022-10-13T03:21:35.692Z,17.65
2022-10-13T03:24:05.567Z,14.60
2022-10-13T03:26:35.214Z,16.58
2022-10-13T03:29:03.347Z,21.70
2022-10-13T03:31:34.404Z,16.40
2022-10-13T03:34:04.082Z,17.40
2022-10-13T03:36:31.892Z,16.73
2022-10-13T03:38:59.716Z,15.30
2022-10-13T03:41:27.614Z,15.88
2022-10-13T03:43:57.496Z,14.68
2022-10-13T03:46:29.896Z,16.00
2022-10-13T03:49:01.567Z,16.20
2022-10-13T03:51:29.399Z,16.98
2022-10-13T03:53:57.165Z,17.95
2022-10-13T03:56:27.559Z,17.50
2022-10-13T03:58:59.941Z,14.35
2022-10-13T04:01:32.714Z,14.98
2022-10-13T04:04:02.264Z,17.10
2022-10-13T04:06:30.649Z,18.70
2022-10-13T04:08:59.100Z,19.27
2022-10-13T04:11:26.889Z,22.08
2022-10-13T04:13:56.676Z,18.45
2022-10-13T04:16:26.384Z,22.25
2022-10-13T04:18:56.214Z,20.45
2022-10-13T04:21:24.687Z,18.30
2022-10-13T04:23:52.469Z,21.35
2022-10-13T04:26:23.185Z,21.90
2022-10-13T04:28:52.712Z,22.70
2022-10-13T04:31:22.776Z,18.70
2022-10-13T04:33:51.290Z,16.77
2022-10-13T04:36:19.760Z,16.90
2022-10-13T04:38:47.948Z,13.35
2022-10-13T04:41:17.104Z,14.57
2022-10-13T04:43:45.297Z,12.55
2022-10-13T04:46:16.254Z,15.93
2022-10-13T04:48:46.060Z,14.68
2022-10-13T04:51:17.832Z,16.35
2022-10-13T04:53:45.790Z,13.57
2022-10-13T04:56:15.433Z,18.38
2022-10-13T04:58:44.581Z,16.30
2022-10-13T05:01:21.160Z,17.83
2022-10-13T05:03:54.138Z,16.73
2022-10-13T05:06:23.781Z,12.00
2022-10-13T05:08:51.826Z,13.52
2022-10-13T05:11:20.695Z,16.08
2022-10-13T05:13:48.625Z,13.05
2022-10-13T05:16:17.711Z,15.45
2022-10-13T05:18:45.824Z,11.40
2022-10-13T05:21:16.625Z,12.05
2022-10-13T05:23:45.293Z,12.88
2022-10-13T05:26:15.235Z,14.38
2022-10-13T05:28:43.774Z,14.52
2022-10-13T05:31:13.041Z,12.05
2022-10-13T05:33:41.504Z,12.15
2022-10-13T05:36:11.667Z,13.25
2022-10-13T05:38:43.561Z,12.88
2022-10-13T05:41:13.988Z,15.15
2022-10-13T05:43:42.624Z,14.95
2022-10-13T05:46:10.559Z,19.33
2022-10-13T05:48:39.510Z,21.10
2022-10-13T05:51:11.781Z,20.13
2022-10-13T05:53:48.182Z,17.90
2022-10-13T05:56:20.655Z,19.38
2022-10-13T05:58:52.224Z,17.33
2022-10-13T06:01:23.172Z,13.75
2022-10-13T06:03:53.454Z,22.75
2022-10-13T06:06:21.420Z,16.60
2022-10-13T06:08:51.098Z,17.88
2022-10-13T06:11:18.943Z,14.85
2022-10-13T06:13:46.689Z,15.00
2022-10-13T06:16:14.435Z,19.75
2022-10-13T06:18:42.263Z,21.73
2022-10-13T06:21:09.961Z,20.80
2022-10-13T06:23:37.679Z,21.52
2022-10-13T06:26:08.693Z,24.67
2022-10-13T06:28:36.908Z,25.23
2022-10-13T06:31:09.055Z,36.40
2022-10-13T06:33:36.775Z,20.77
2022-10-13T06:36:05.862Z,23.83
2022-10-13T06:38:34.412Z,30.00
2022-10-13T06:41:02.255Z,28.80
2022-10-13T06:43:39.651Z,24.98
2022-10-13T06:46:08.192Z,20.90
2022-10-13T06:48:36.036Z,23.63
2022-10-13T06:51:04.870Z,26.08
2022-10-13T06:53:32.828Z,20.38
2022-10-13T06:56:01.300Z,20.65
2022-10-13T06:58:29.027Z,22.60
2022-10-13T07:00:58.836Z,22.73
2022-10-13T07:03:26.587Z,22.13
2022-10-13T07:05:54.286Z,20.95
2022-10-13T07:08:22.462Z,23.05
2022-10-13T07:10:50.096Z,22.90
2022-10-13T07:13:18.061Z,30.00
2022-10-13T07:15:45.675Z,24.17
2022-10-13T07:18:18.083Z,23.35
2022-10-13T07:20:45.929Z,22.77
2022-10-13T07:23:13.656Z,27.05
2022-10-13T07:25:42.356Z,23.70
2022-10-13T07:31:16.006Z,25.95
2022-10-13T07:33:49.872Z,25.25
2022-10-13T07:36:17.605Z,27.73
2022-10-13T07:38:45.653Z,25.00
2022-10-13T07:41:14.350Z,28.55
2022-10-13T07:43:42.500Z,28.13
2022-10-13T07:46:11.897Z,28.73
2022-10-13T07:48:39.614Z,30.80
2022-10-13T07:51:11.918Z,28.38
2022-10-13T07:53:43.727Z,28.45
2022-10-13T07:56:15.591Z,35.13
2022-10-13T07:58:44.777Z,23.60
2022-10-13T08:01:13.107Z,33.15
2022-10-13T08:03:43.075Z,25.33
2022-10-13T08:06:15.949Z,31.40
2022-10-13T08:08:43.568Z,30.27
2022-10-13T08:11:16.486Z,26.42
2022-10-13T08:13:47.865Z,26.88
2022-10-13T08:16:15.472Z,29.40
2022-10-13T08:18:43.104Z,26.25
2022-10-13T08:24:03.153Z,27.25
2022-10-13T08:26:32.719Z,26.02
2022-10-13T08:29:20.690Z,30.88
2022-10-13T08:34:23.261Z,26.63
2022-10-13T08:36:53.063Z,30.42
2022-10-13T08:39:22.949Z,27.95
2022-10-13T08:41:51.421Z,29.58
2022-10-13T08:44:59.558Z,30.73
2022-10-13T08:47:19.764Z,26.50
2022-10-13T08:49:47.605Z,31.17
2022-10-13T08:52:22.799Z,26.15
2022-10-13T08:54:56.056Z,26.23
2022-10-13T08:57:24.067Z,28.60
2022-10-13T08:59:53.294Z,29.95
2022-10-13T09:02:25.165Z,26.88
2022-10-13T09:04:54.452Z,24.20
2022-10-13T09:07:25.656Z,33.28
2022-10-13T09:09:55.818Z,24.10
2022-10-13T09:12:25.091Z,29.60
2022-10-13T09:15:01.465Z,26.83
2022-10-13T09:17:30.442Z,23.48
2022-10-13T09:20:00.662Z,24.42
2022-10-13T09:22:30.199Z,28.20
2022-10-13T09:25:19.233Z,22.60
2022-10-13T09:27:51.608Z,29.35
2022-10-13T09:30:27.510Z,24.38
2022-10-13T09:33:06.412Z,32.38
2022-10-13T09:35:35.058Z,30.17
2022-10-13T09:38:04.470Z,31.65
2022-10-13T09:40:34.385Z,29.73
2022-10-13T09:43:03.632Z,24.70
2022-10-13T09:45:31.484Z,22.63
2022-10-13T09:48:01.700Z,25.73
2022-10-13T09:50:31.867Z,26.55
2022-10-13T09:53:18.794Z,25.42
2022-10-13T09:55:49.504Z,24.83
2022-10-13T09:58:22.887Z,25.10
2022-10-13T10:00:52.586Z,20.38
2022-10-13T10:03:24.709Z,24.00
2022-10-13T10:05:55.667Z,23.85
2022-10-13T10:08:33.869Z,23.63
2022-10-13T10:11:14.514Z,26.05
2022-10-13T10:13:42.090Z,26.13
2022-10-13T10:16:15.585Z,21.98
2022-10-13T10:18:51.899Z,22.67
2022-10-13T10:21:31.748Z,25.92
2022-10-13T10:24:04.050Z,25.48
2022-10-13T10:26:46.207Z,25.75
2022-10-13T10:29:20.906Z,24.88
2022-10-13T10:31:58.969Z,18.73
2022-10-13T10:34:38.282Z,22.75
2022-10-13T10:37:22.868Z,25.63
2022-10-13T10:40:03.581Z,24.30
2022-10-13T10:42:58.592Z,22.85
2022-10-13T10:45:28.082Z,22.45
2022-10-13T10:48:00.271Z,22.65
2022-10-13T10:50:31.420Z,23.33
2022-10-13T10:53:03.540Z,24.67
2022-10-13T10:55:36.556Z,21.83
2022-10-13T10:58:22.361Z,23.17
2022-10-13T11:00:57.596Z,19.08
2022-10-13T11:03:39.099Z,22.60
2022-10-13T11:06:23.952Z,23.92
2022-10-13T11:08:51.859Z,30.38
2022-10-13T11:11:40.056Z,31.98
2022-10-13T11:14:30.398Z,28.75
2022-10-13T11:17:18.742Z,29.08
2022-10-13T11:19:50.042Z,26.23
2022-10-13T11:22:19.965Z,31.45
2022-10-13T11:24:50.604Z,28.02
2022-10-13T11:27:26.334Z,28.23
2022-10-13T11:30:00.248Z,29.48
2022-10-13T11:32:55.314Z,29.35
2022-10-13T11:35:29.665Z,29.00
2022-10-13T11:38:25.391Z,27.13
2022-10-13T11:41:09.053Z,25.98
2022-10-13T11:43:47.071Z,24.48
2022-10-13T11:46:25.646Z,25.45
2022-10-13T11:49:21.078Z,30.30
2022-10-13T11:52:13.252Z,32.95
2022-10-13T11:54:48.529Z,29.70
2022-10-13T11:57:21.503Z,27.50
2022-10-13T11:59:51.536Z,23.83
2022-10-13T12:02:21.236Z,34.42
2022-10-13T12:05:04.394Z,26.85
2022-10-13T12:07:35.370Z,26.98
2022-10-13T12:10:07.590Z,24.45
2022-10-13T12:12:37.984Z,23.45
2022-10-13T12:15:29.326Z,28.77
2022-10-13T12:17:58.393Z,26.52
2022-10-13T12:20:28.418Z,32.88
2022-10-13T12:22:56.984Z,30.30
2022-10-13T12:25:27.272Z,32.35
2022-10-13T12:27:57.039Z,28.58
2022-10-13T12:30:27.363Z,28.55
2022-10-13T12:32:57.349Z,27.65
2022-10-13T12:35:28.645Z,24.85
2022-10-13T12:37:57.717Z,29.48
2022-10-13T12:40:26.201Z,28.52
2022-10-13T12:42:54.255Z,26.25
2022-10-13T12:45:24.311Z,26.65
2022-10-13T12:47:53.640Z,29.50
2022-10-13T12:50:37.768Z,24.90
2022-10-13T12:53:12.791Z,25.33
2022-10-13T12:55:55.179Z,29.55
2022-10-13T12:58:26.256Z,29.27
2022-10-13T13:01:21.656Z,26.98
2022-10-13T13:03:55.919Z,23.88
2022-10-13T13:06:37.177Z,21.15
2022-10-13T13:09:29.775Z,25.52
2022-10-13T13:12:06.786Z,22.42
2022-10-13T13:14:37.358Z,25.63
2022-10-13T13:17:12.414Z,23.45
2022-10-13T13:19:41.693Z,23.88
2022-10-13T13:22:10.787Z,26.77
2022-10-13T13:24:40.436Z,21.38
2022-10-13T13:27:20.212Z,26.23
2022-10-13T13:29:48.434Z,23.80
2022-10-13T13:32:20.071Z,23.17
2022-10-13T13:34:48.039Z,25.80
2022-10-13T13:37:24.859Z,25.98
2022-10-13T13:39:52.683Z,19.58
2022-10-13T13:42:20.389Z,18.75
2022-10-13T13:44:48.069Z,23.85
2022-10-13T13:47:18.626Z,21.98
2022-10-13T13:49:46.882Z,18.55
2022-10-13T13:52:15.008Z,23.58
2022-10-13T13:54:44.064Z,17.63
2022-10-13T13:57:12.661Z,16.95
2022-10-13T13:59:40.903Z,15.98
2022-10-13T14:02:14.631Z,19.58
2022-10-13T14:04:42.538Z,17.42
2022-10-13T14:07:10.627Z,17.00
2022-10-13T14:09:38.472Z,20.52
2022-10-13T14:12:07.749Z,20.50
2022-10-13T14:14:35.586Z,22.05
2022-10-13T14:17:04.556Z,18.13
2022-10-13T14:19:32.891Z,18.15
2022-10-13T14:22:04.664Z,19.55
2022-10-13T14:24:34.795Z,15.30
2022-10-13T14:27:02.504Z,21.95
2022-10-13T14:29:31.598Z,20.77
2022-10-13T14:31:59.398Z,15.60
2022-10-13T14:34:27.188Z,21.75
2022-10-13T14:36:54.996Z,19.48
2022-10-13T14:39:22.773Z,25.00
2022-10-13T14:41:50.376Z,21.70
2022-10-13T14:44:18.157Z,18.38
2022-10-13T14:46:47.239Z,16.90
2022-10-13T14:49:15.339Z,18.90
2022-10-13T14:51:42.955Z,18.25
2022-10-13T14:54:10.763Z,21.63
2022-10-13T14:56:38.685Z,16.65
2022-10-13T14:59:08.094Z,23.27
2022-10-13T15:01:35.809Z,20.80
2022-10-13T15:04:05.212Z,18.58
2022-10-13T15:06:33.205Z,17.70
2022-10-13T15:09:00.835Z,25.25
2022-10-13T15:11:28.748Z,20.98
2022-10-13T15:13:56.753Z,19.02
2022-10-13T15:16:26.176Z,24.58
2022-10-13T15:18:53.885Z,21.17
2022-10-13T15:21:23.775Z,18.67
2022-10-13T15:23:51.470Z,20.73
2022-10-13T15:26:21.069Z,20.38
2022-10-13T15:28:50.678Z,20.88
2022-10-13T15:31:20.134Z,20.67
2022-10-13T15:33:49.624Z,22.33
2022-10-13T15:36:17.299Z,21.58
2022-10-13T15:38:46.288Z,14.73
2022-10-13T15:41:14.338Z,16.17
2022-10-13T15:43:41.994Z,21.23
2022-10-13T15:46:12.465Z,23.38
2022-10-13T15:48:40.415Z,19.65
2022-10-13T15:51:13.391Z,19.23
2022-10-13T15:53:40.997Z,19.23
2022-10-13T15:56:10.359Z,17.67
2022-10-13T15:58:38.045Z,22.02
2022-10-13T16:01:08.365Z,20.35
2022-10-13T16:03:36.391Z,18.85
2022-10-13T16:06:05.388Z,23.13
2022-10-13T16:08:33.228Z,20.77
2022-10-13T16:11:00.884Z,20.90
2022-10-13T16:13:29.928Z,21.95
2022-10-13T16:15:58.694Z,22.17
2022-10-13T16:18:30.342Z,19.70
2022-10-13T16:20:58.105Z,23.00
2022-10-13T16:23:26.547Z,20.73
2022-10-13T16:25:54.327Z,16.45
2022-10-13T16:28:22.036Z,20.83
2022-10-13T16:30:51.039Z,27.63
2022-10-13T16:33:18.630Z,34.95
2022-10-13T16:35:46.247Z,33.22
2022-10-13T16:38:14.107Z,27.85
2022-10-13T16:40:41.737Z,29.27
2022-10-13T16:43:09.557Z,27.58
2022-10-13T16:45:58.476Z,28.58
2022-10-13T16:48:26.340Z,27.92
2022-10-13T16:50:54.128Z,21.27
2022-10-13T16:53:21.765Z,18.73
2022-10-13T16:55:49.809Z,25.08
2022-10-13T16:58:17.405Z,26.80
2022-10-13T17:00:45.290Z,30.00
2022-10-13T17:03:12.920Z,23.83
2022-10-13T17:05:41.888Z,26.65
2022-10-13T17:08:09.476Z,22.83
2022-10-13T17:10:37.102Z,24.98
2022-10-13T17:13:04.702Z,25.63
2022-10-13T17:15:32.320Z,25.27
2022-10-13T17:17:59.937Z,23.77
2022-10-13T17:20:27.627Z,21.58
2022-10-13T17:22:56.560Z,17.73
2022-10-13T17:25:24.256Z,27.08
2022-10-13T17:27:51.976Z,23.48
2022-10-13T17:30:19.734Z,21.92
2022-10-13T17:32:47.304Z,20.20
2022-10-13T17:35:17.958Z,23.98
2022-10-13T17:37:45.592Z,20.33
2022-10-13T17:40:14.651Z,18.55
2022-10-13T17:42:42.284Z,19.45
2022-10-13T17:45:10.544Z,20.73
2022-10-13T17:47:38.117Z,22.38
2022-10-13T17:50:06.462Z,24.08
2022-10-13T17:52:34.050Z,18.67
2022-10-13T17:55:01.706Z,22.30
2022-10-13T17:57:32.016Z,21.50
2022-10-13T17:59:59.618Z,22.85
2022-10-13T18:02:27.466Z,18.88
2022-10-13T18:04:55.106Z,21.73
2022-10-13T18:07:23.043Z,20.30
2022-10-13T18:09:52.000Z,19.10
2022-10-13T18:12:19.989Z,23.40
2022-10-13T18:14:48.964Z,23.73
2022-10-13T18:17:16.569Z,20.50
2022-10-13T18:19:44.184Z,30.00
2022-10-13T18:22:11.784Z,48.38
2022-10-13T18:24:39.418Z,34.40
2022-10-13T18:27:07.068Z,38.13
2022-10-13T18:29:34.692Z,38.42
2022-10-13T18:32:03.706Z,29.65
2022-10-13T18:34:31.397Z,24.10
2022-10-13T18:36:59.000Z,24.30
2022-10-13T18:39:28.648Z,24.92
2022-10-13T18:41:57.738Z,27.00
2022-10-13T18:44:25.842Z,23.77
2022-10-13T18:46:57.780Z,22.63
2022-10-13T18:49:31.657Z,21.25
2022-10-13T18:51:59.994Z,23.63
2022-10-13T18:54:28.872Z,24.77
2022-10-13T18:56:56.529Z,25.08
2022-10-13T18:59:24.429Z,18.92
2022-10-13T19:01:52.074Z,26.30
2022-10-13T19:04:21.425Z,22.20
2022-10-13T19:06:50.419Z,20.02
2022-10-13T19:09:18.331Z,26.92
2022-10-13T19:11:45.953Z,20.02
2022-10-13T19:14:14.430Z,19.02
2022-10-13T19:16:43.966Z,28.92
2022-10-13T19:19:11.613Z,18.58
2022-10-13T19:21:39.860Z,24.52
2022-10-13T19:24:09.685Z,20.88
2022-10-13T19:26:37.824Z,20.75
2022-10-13T19:29:07.600Z,26.15
2022-10-13T19:31:37.038Z,30.83
2022-10-13T19:34:05.208Z,40.28
2022-10-13T19:36:37.330Z,21.17
2022-10-13T19:39:07.176Z,21.50
2022-10-13T19:41:36.327Z,52.22
2022-10-13T19:44:04.060Z,36.72
2022-10-13T19:46:31.781Z,22.25
2022-10-13T19:48:59.369Z,22.95
2022-10-13T19:51:27.021Z,28.80
2022-10-13T19:53:54.818Z,19.45
2022-10-13T19:56:25.707Z,20.08
2022-10-13T19:58:55.628Z,21.23
2022-10-13T20:01:24.467Z,22.27
2022-10-13T20:03:52.819Z,18.88
2022-10-13T20:06:21.684Z,25.35
2022-10-13T20:08:50.400Z,21.90
2022-10-13T20:11:23.652Z,18.60
2022-10-13T20:13:52.368Z,22.17
2022-10-13T20:16:23.275Z,21.45
2022-10-13T20:18:53.211Z,19.02
2022-10-13T20:21:20.822Z,17.85
2022-10-13T20:23:48.758Z,24.38
2022-10-13T20:26:17.024Z,19.80
2022-10-13T20:28:46.104Z,15.32
2022-10-13T20:31:15.477Z,18.20
2022-10-13T20:33:44.486Z,13.20
2022-10-13T20:36:14.039Z,20.42
2022-10-13T20:38:42.483Z,19.48
2022-10-13T20:41:15.235Z,17.55
2022-10-13T20:43:42.885Z,20.80
2022-10-13T20:46:10.597Z,19.20
2022-10-13T20:49:08.754Z,16.15
2022-10-13T20:51:29.077Z,17.17
2022-10-13T20:53:56.673Z,17.20
2022-10-13T20:56:26.286Z,17.48
2022-10-13T20:58:54.586Z,20.00
2022-10-13T21:01:24.563Z,18.00
2022-10-13T21:03:52.899Z,19.23
2022-10-13T21:06:21.240Z,15.10
2022-10-13T21:08:50.259Z,18.30
2022-10-13T21:11:20.049Z,14.23
2022-10-13T21:13:49.077Z,14.02
2022-10-13T21:16:19.004Z,15.60
2022-10-13T21:18:49.006Z,36.88
2022-10-13T21:21:18.459Z,43.08
2022-10-13T21:23:46.218Z,25.15
2022-10-13T21:26:20.413Z,18.05
2022-10-13T21:28:49.920Z,11.57
2022-10-13T21:31:26.636Z,13.98
2022-10-13T21:33:55.084Z,11.73
2022-10-13T21:36:24.657Z,12.90
2022-10-13T21:38:54.100Z,22.85
2022-10-13T21:41:23.539Z,15.20
2022-10-13T21:43:51.800Z,15.85
2022-10-13T21:46:22.028Z,14.43
2022-10-13T21:48:50.104Z,19.40
2022-10-13T21:51:20.808Z,20.13
2022-10-13T21:53:51.189Z,19.33
2022-10-13T21:56:21.878Z,18.20
2022-10-13T21:58:50.881Z,15.40
2022-10-13T22:01:19.248Z,18.73
2022-10-13T22:03:47.980Z,14.13
2022-10-13T22:06:19.589Z,16.08
2022-10-13T22:08:49.283Z,16.17
2022-10-13T22:11:17.564Z,16.42
2022-10-13T22:13:45.739Z,16.33
2022-10-13T22:16:16.926Z,14.98
2022-10-13T22:18:44.972Z,14.70
2022-10-13T22:21:15.215Z,14.73
2022-10-13T22:23:43.051Z,18.00
2022-10-13T22:26:11.344Z,15.55
2022-10-13T22:28:40.032Z,18.15
2022-10-13T22:31:09.681Z,13.95
2022-10-13T22:33:40.440Z,16.67
2022-10-13T22:36:08.886Z,17.33
2022-10-13T22:38:36.530Z,17.25
2022-10-13T22:41:04.871Z,15.40
2022-10-13T22:43:32.756Z,17.10
2022-10-13T22:46:01.861Z,15.77
2022-10-13T22:48:29.650Z,17.92
2022-10-13T22:50:58.837Z,14.80
2022-10-13T22:53:26.470Z,21.85
2022-10-13T22:55:54.062Z,23.00
2022-10-13T22:58:21.935Z,17.23
2022-10-13T23:00:49.492Z,16.27
2022-10-13T23:03:17.393Z,18.42
2022-10-13T23:05:48.215Z,15.00
2022-10-13T23:08:17.164Z,32.53
2022-10-13T23:10:44.739Z,28.27
2022-10-13T23:13:12.354Z,16.95
2022-10-13T23:15:40.284Z,19.08
2022-10-13T23:18:07.916Z,18.90
2022-10-13T23:20:35.523Z,23.52
2022-10-13T23:23:03.124Z,15.30
2022-10-13T23:25:32.311Z,22.55
2022-10-13T23:27:59.885Z,22.17
2022-10-13T23:30:27.678Z,24.67
2022-10-13T23:32:55.277Z,22.33
2022-10-13T23:35:22.977Z,22.75
2022-10-13T23:37:52.744Z,15.93
2022-10-13T23:40:20.679Z,15.35
2022-10-13T23:42:49.680Z,20.05
2022-10-13T23:45:17.435Z,14.63
2022-10-13T23:47:45.017Z,16.75
2022-10-13T23:50:12.761Z,17.40
2022-10-13T23:52:40.328Z,17.00
2022-10-13T23:55:08.762Z,14.10
2022-10-13T23:57:36.379Z,12.23
